Time;durP1;ratioP1;P1;durP2;ratioP2;P2;SDS_P1;SDS_P2;PMS_P1;PMS_P2;Temp;Humidity;BMP_temperature;BMP_pressure;BME280_temperature;BME280_humidity;BME280_pressure;Samples;Min_cycle;Max_cycle;Signal;HPM_P1;HPM_P2
2021/03/12 00:00:41;;;;;;;0.65;0.10;;;6.30;99.90;;;;;;5077883;28;20077;-82
2021/03/12 00:03:12;;;;;;;0.10;0.10;;;6.30;99.90;;;;;;5072570;28;20077;-82
2021/03/12 00:05:42;;;;;;;1.40;0.10;;;6.20;99.90;;;;;;5076043;28;20540;-83
2021/03/12 00:08:08;;;;;;;0.20;0.10;;;6.30;99.90;;;;;;5076231;28;20230;-83
2021/03/12 00:10:34;;;;;;;0.65;0.10;;;6.10;99.90;;;;;;5075289;28;20085;-83
2021/03/12 00:13:00;;;;;;;0.75;0.10;;;6.20;99.90;;;;;;5083307;28;20310;-82
2021/03/12 00:15:26;;;;;;;0.15;0.15;;;6.20;99.90;;;;;;5065536;28;20172;-83
2021/03/12 00:17:52;;;;;;;0.13;0.08;;;6.10;99.90;;;;;;5060393;28;20097;-83
2021/03/12 00:20:24;;;;;;;0.22;0.10;;;6.00;99.90;;;;;;5068643;28;20103;-81
2021/03/12 00:22:51;;;;;;;1.13;0.10;;;6.10;99.90;;;;;;5075942;28;20171;-82
2021/03/12 00:25:21;;;;;;;0.17;0.00;;;6.00;99.90;;;;;;5069691;28;20073;-82
2021/03/12 00:27:47;;;;;;;1.55;0.17;;;6.10;99.90;;;;;;5074514;28;20607;-82
2021/03/12 00:30:13;;;;;;;0.00;0.00;;;6.00;99.90;;;;;;5071380;28;20081;-84
2021/03/12 00:32:39;;;;;;;0.00;0.00;;;6.00;99.90;;;;;;5067662;28;20081;-82
2021/03/12 00:35:07;;;;;;;0.15;0.00;;;6.10;99.90;;;;;;5072513;28;20092;-82
2021/03/12 00:37:34;;;;;;;0.30;0.00;;;6.10;99.90;;;;;;5087730;28;20194;-82
2021/03/12 00:40:00;;;;;;;0.10;0.10;;;6.10;99.90;;;;;;5062858;28;20150;-81
2021/03/12 00:42:26;;;;;;;0.10;0.00;;;6.00;99.90;;;;;;5059004;28;20096;-82
2021/03/12 00:44:52;;;;;;;0.20;0.10;;;6.00;99.90;;;;;;5097235;28;20432;-82
2021/03/12 00:47:18;;;;;;;0.00;0.00;;;6.10;99.90;;;;;;5069460;28;20109;-81
2021/03/12 00:49:44;;;;;;;1.45;0.10;;;6.10;99.90;;;;;;5070253;28;20082;-82
2021/03/12 00:52:10;;;;;;;0.15;0.10;;;6.10;99.90;;;;;;5093585;28;20085;-81
2021/03/12 00:54:36;;;;;;;0.20;0.10;;;6.00;99.90;;;;;;5073291;28;20168;-82
2021/03/12 00:57:02;;;;;;;0.47;0.00;;;6.00;99.90;;;;;;5075734;28;20101;-82
2021/03/12 00:59:27;;;;;;;0.08;0.08;;;6.00;99.90;;;;;;5061341;28;20184;-83
2021/03/12 01:01:53;;;;;;;0.98;0.13;;;6.00;99.90;;;;;;5071489;28;20108;-83
2021/03/12 01:04:19;;;;;;;0.50;0.10;;;6.00;99.90;;;;;;5069708;28;20077;-82
2021/03/12 01:06:45;;;;;;;1.42;0.35;;;5.90;99.90;;;;;;5068518;28;20610;-83
2021/03/12 01:09:10;;;;;;;0.20;0.20;;;5.80;99.90;;;;;;5095659;28;20077;-83
2021/03/12 01:11:36;;;;;;;0.25;0.10;;;5.90;99.90;;;;;;5073946;28;20168;-83
2021/03/12 01:14:02;;;;;;;0.63;0.25;;;5.80;99.90;;;;;;5066146;28;20115;-84
2021/03/12 01:16:28;;;;;;;0.57;0.10;;;5.90;99.90;;;;;;5070710;28;20116;-84
2021/03/12 01:18:53;;;;;;;0.35;0.10;;;5.90;99.90;;;;;;5067461;28;20554;-84
2021/03/12 01:21:20;;;;;;;1.08;0.10;;;5.90;99.90;;;;;;5089703;28;20081;-83
2021/03/12 01:23:46;;;;;;;1.15;0.13;;;5.80;99.90;;;;;;5059906;28;20078;-82
2021/03/12 01:26:11;;;;;;;0.03;0.00;;;5.80;99.90;;;;;;5053347;28;20093;-83
2021/03/12 01:28:37;;;;;;;0.30;0.13;;;5.80;99.90;;;;;;5062099;28;20093;-82
2021/03/12 01:31:03;;;;;;;2.97;0.13;;;5.80;99.90;;;;;;5067238;28;20168;-84
2021/03/12 01:33:28;;;;;;;1.10;0.00;;;5.70;99.90;;;;;;5071536;28;20171;-83
2021/03/12 01:35:54;;;;;;;0.30;0.10;;;5.80;99.90;;;;;;5076777;28;20100;-84
2021/03/12 01:38:20;;;;;;;0.20;0.10;;;5.80;99.90;;;;;;5080760;28;20122;-84
2021/03/12 01:40:48;;;;;;;0.10;0.10;;;5.80;99.90;;;;;;5077225;28;20074;-84
2021/03/12 01:43:14;;;;;;;0.25;0.10;;;5.90;99.90;;;;;;5078759;28;20451;-84
2021/03/12 01:45:43;;;;;;;0.10;0.10;;;5.80;99.90;;;;;;5079282;28;20069;-84
2021/03/12 01:48:11;;;;;;;0.00;0.00;;;5.80;99.90;;;;;;5066511;28;20084;-82
2021/03/12 01:50:38;;;;;;;0.38;0.10;;;5.80;99.90;;;;;;5073782;28;20077;-83
2021/03/12 01:53:10;;;;;;;0.40;0.10;;;5.70;99.90;;;;;;5073285;28;20088;-82
2021/03/12 01:55:36;;;;;;;0.47;0.15;;;5.70;99.90;;;;;;5063856;28;20141;-84
2021/03/12 01:58:03;;;;;;;1.38;0.20;;;5.80;99.90;;;;;;5063034;28;20657;-84
2021/03/12 02:00:29;;;;;;;0.70;0.17;;;5.70;99.90;;;;;;5062403;28;20139;-84
2021/03/12 02:02:57;;;;;;;0.98;0.20;;;5.70;99.90;;;;;;5071670;28;20073;-84
2021/03/12 02:05:22;;;;;;;0.63;0.10;;;5.60;99.90;;;;;;5070656;28;20092;-84
2021/03/12 02:07:48;;;;;;;0.85;0.03;;;5.60;99.90;;;;;;5064995;28;20108;-85
2021/03/12 02:10:17;;;;;;;0.05;0.00;;;5.60;99.90;;;;;;5072578;28;20592;-84
2021/03/12 02:12:53;;;;;;;0.47;0.20;;;5.50;99.90;;;;;;5071921;28;20086;-83
2021/03/12 02:15:30;;;;;;;0.65;0.10;;;5.50;99.90;;;;;;5074382;28;20096;-83
2021/03/12 02:18:01;;;;;;;1.75;0.30;;;5.60;99.90;;;;;;5074361;28;20112;-85
2021/03/12 02:21:11;;;;;;;0.50;0.10;;;5.60;99.90;;;;;;5075526;28;20520;-85
2021/03/12 02:23:52;;;;;;;1.05;0.10;;;5.50;99.90;;;;;;5022745;28;20136;-84
2021/03/12 02:26:36;;;;;;;0.35;0.20;;;5.50;99.90;;;;;;5072320;28;20092;-84
2021/03/12 02:29:07;;;;;;;0.00;0.00;;;5.50;99.90;;;;;;5072634;28;20101;-84
2021/03/12 02:31:34;;;;;;;0.52;0.10;;;5.50;99.90;;;;;;5077173;28;20092;-85
2021/03/12 02:34:03;;;;;;;0.20;0.10;;;5.40;99.90;;;;;;5066179;28;20620;-86
2021/03/12 02:36:31;;;;;;;1.98;0.30;;;5.40;99.90;;;;;;5073304;28;20100;-85
2021/03/12 02:38:58;;;;;;;0.10;0.08;;;5.40;99.90;;;;;;5065793;28;20082;-85
2021/03/12 02:41:28;;;;;;;0.30;0.10;;;5.40;99.90;;;;;;5071438;28;20081;-84
2021/03/12 02:43:55;;;;;;;0.30;0.10;;;5.40;99.90;;;;;;5068231;28;20130;-84
2021/03/12 02:46:24;;;;;;;0.22;0.00;;;5.40;99.90;;;;;;5067828;28;20085;-84
2021/03/12 02:48:54;;;;;;;0.20;0.00;;;5.40;99.90;;;;;;5063807;28;20601;-84
2021/03/12 02:51:21;;;;;;;0.95;0.10;;;5.40;99.90;;;;;;5072975;28;20073;-84
2021/03/12 02:53:48;;;;;;;0.80;0.50;;;5.40;99.90;;;;;;5074348;28;20112;-84
2021/03/12 02:56:15;;;;;;;0.03;0.03;;;5.40;99.90;;;;;;5068109;28;20184;-83
2021/03/12 02:58:44;;;;;;;1.17;0.17;;;5.40;99.90;;;;;;5063417;28;20085;-85
2021/03/12 03:01:12;;;;;;;1.50;0.43;;;5.40;99.90;;;;;;5070854;28;20130;-86
2021/03/12 03:03:38;;;;;;;0.50;0.10;;;5.50;99.90;;;;;;5074912;28;20102;-87
2021/03/12 03:06:06;;;;;;;0.25;0.10;;;5.50;99.90;;;;;;5067591;28;20188;-86
2021/03/12 03:08:35;;;;;;;0.38;0.03;;;5.50;99.90;;;;;;5078117;28;20167;-85
2021/03/12 03:11:03;;;;;;;2.47;0.10;;;5.50;99.90;;;;;;5064803;28;20081;-85
2021/03/12 03:13:34;;;;;;;2.00;0.20;;;5.50;99.90;;;;;;5079444;28;20085;-84
2021/03/12 03:16:01;;;;;;;1.67;0.73;;;5.50;99.90;;;;;;5074227;28;20176;-85
2021/03/12 03:18:30;;;;;;;0.35;0.17;;;5.50;99.90;;;;;;5071635;28;20093;-84
2021/03/12 03:20:57;;;;;;;0.20;0.00;;;5.50;99.90;;;;;;5075135;28;20124;-83
2021/03/12 03:23:24;;;;;;;1.35;0.10;;;5.40;99.90;;;;;;5068533;28;20187;-84
2021/03/12 03:25:49;;;;;;;3.17;1.65;;;5.50;99.90;;;;;;5070242;28;20138;-82
2021/03/12 03:28:15;;;;;;;0.80;0.15;;;5.40;99.90;;;;;;5071979;28;20085;-82
2021/03/12 03:30:41;;;;;;;2.67;0.35;;;5.50;99.90;;;;;;5068728;28;20081;-81
2021/03/12 03:33:07;;;;;;;1.73;0.13;;;5.40;99.90;;;;;;5072015;28;21115;-81
2021/03/12 03:35:33;;;;;;;0.65;0.20;;;5.40;99.90;;;;;;5073166;28;20115;-85
2021/03/12 03:37:59;;;;;;;0.68;0.20;;;5.40;99.90;;;;;;5074878;28;20120;-82
2021/03/12 03:40:27;;;;;;;0.82;0.10;;;5.40;99.90;;;;;;5073483;28;20095;-85
2021/03/12 03:42:55;;;;;;;1.13;0.20;;;5.50;99.90;;;;;;5072298;28;20081;-86
2021/03/12 03:45:21;;;;;;;0.32;0.13;;;5.50;99.90;;;;;;5074649;28;20069;-85
2021/03/12 03:47:48;;;;;;;0.70;0.17;;;5.50;99.90;;;;;;5065445;28;20122;-88
2021/03/12 03:50:15;;;;;;;1.08;0.98;;;5.60;99.90;;;;;;5075304;28;20080;-84
2021/03/12 03:52:42;;;;;;;1.05;0.10;;;5.60;99.90;;;;;;5060602;28;20082;-85
2021/03/12 03:55:09;;;;;;;1.00;0.10;;;5.60;99.90;;;;;;5074826;28;20085;-84
2021/03/12 03:57:37;;;;;;;1.63;0.15;;;5.60;99.90;;;;;;5074495;28;20435;-85
2021/03/12 04:00:05;;;;;;;1.92;0.22;;;5.50;99.90;;;;;;5073729;28;20113;-85
2021/03/12 04:02:33;;;;;;;1.65;0.20;;;5.50;99.90;;;;;;5074599;28;20096;-84
2021/03/12 04:05:01;;;;;;;0.68;0.20;;;5.50;99.90;;;;;;5074293;28;20519;-85
2021/03/12 04:07:28;;;;;;;1.50;0.30;;;5.50;99.90;;;;;;5071867;28;20156;-85
2021/03/12 04:09:57;;;;;;;3.97;1.00;;;5.50;99.90;;;;;;5071940;28;20081;-84
2021/03/12 04:12:24;;;;;;;0.55;0.15;;;5.50;99.90;;;;;;5069792;28;20081;-84
2021/03/12 04:14:51;;;;;;;3.38;0.40;;;5.40;99.90;;;;;;5086485;28;20077;-84
2021/03/12 04:17:17;;;;;;;2.67;0.95;;;5.30;99.90;;;;;;5071167;28;20504;-84
2021/03/12 04:19:46;;;;;;;0.45;0.20;;;5.30;99.90;;;;;;5068452;28;20084;-85
2021/03/12 04:22:13;;;;;;;0.30;0.10;;;5.30;99.90;;;;;;5068635;28;20490;-84
2021/03/12 04:24:39;;;;;;;1.85;0.20;;;5.30;99.90;;;;;;5051938;28;20088;-83
2021/03/12 04:27:06;;;;;;;0.77;0.15;;;5.40;99.90;;;;;;5052313;28;20172;-85
2021/03/12 04:29:32;;;;;;;0.68;0.30;;;5.40;99.90;;;;;;5064669;28;20081;-85
2021/03/12 04:31:58;;;;;;;1.13;0.60;;;5.40;99.90;;;;;;5098744;28;20168;-84
2021/03/12 04:34:24;;;;;;;0.73;0.30;;;5.40;99.90;;;;;;5074395;28;20103;-84
2021/03/12 04:36:51;;;;;;;1.20;0.30;;;5.40;99.90;;;;;;5065290;28;20109;-83
2021/03/12 04:39:18;;;;;;;0.45;0.20;;;5.40;99.90;;;;;;5068725;28;20088;-83
2021/03/12 04:41:44;;;;;;;2.03;1.00;;;5.40;99.90;;;;;;5068038;28;20084;-84
2021/03/12 04:44:11;;;;;;;1.67;0.40;;;5.40;99.90;;;;;;5059626;28;20078;-83
2021/03/12 04:46:38;;;;;;;2.55;1.02;;;5.50;99.90;;;;;;5063758;28;20146;-84
2021/03/12 04:49:07;;;;;;;3.75;0.95;;;5.50;99.90;;;;;;5066588;28;20074;-83
2021/03/12 04:51:33;;;;;;;4.25;1.40;;;5.50;99.90;;;;;;5065693;28;20109;-84
2021/03/12 04:53:59;;;;;;;1.88;0.43;;;5.60;99.90;;;;;;5065442;28;20073;-83
2021/03/12 04:56:25;;;;;;;1.75;0.35;;;5.50;99.90;;;;;;5064685;28;20089;-83
2021/03/12 04:58:52;;;;;;;1.83;0.75;;;5.50;99.90;;;;;;5069030;28;20434;-83
2021/03/12 05:01:18;;;;;;;1.52;0.28;;;5.50;99.90;;;;;;5066179;28;20081;-84
2021/03/12 05:03:44;;;;;;;1.40;0.40;;;5.50;99.90;;;;;;5072056;28;20130;-85
2021/03/12 05:06:12;;;;;;;6.07;0.47;;;5.50;99.90;;;;;;5071272;28;20180;-85
2021/03/12 05:08:39;;;;;;;1.55;0.45;;;5.50;99.90;;;;;;5057001;28;20074;-86
2021/03/12 05:11:07;;;;;;;0.55;0.20;;;5.50;99.90;;;;;;5072522;28;20088;-84
2021/03/12 05:13:50;;;;;;;0.98;0.15;;;5.50;99.90;;;;;;5070972;28;20481;-84
2021/03/12 05:16:16;;;;;;;0.75;0.40;;;5.50;99.90;;;;;;5075435;28;20569;-83
2021/03/12 05:18:42;;;;;;;1.27;0.50;;;5.50;99.90;;;;;;5074349;28;20101;-86
2021/03/12 05:21:08;;;;;;;1.00;0.20;;;5.50;99.90;;;;;;5074667;28;20467;-86
2021/03/12 05:23:34;;;;;;;1.38;0.38;;;5.50;99.90;;;;;;5065955;28;20520;-85
2021/03/12 05:26:00;;;;;;;0.20;0.17;;;5.40;99.90;;;;;;5072836;28;20127;-83
2021/03/12 05:28:26;;;;;;;0.50;0.20;;;5.40;99.90;;;;;;5070016;28;20639;-82
2021/03/12 05:30:51;;;;;;;0.80;0.30;;;5.50;99.90;;;;;;5058106;28;20088;-80
2021/03/12 05:33:17;;;;;;;0.17;0.10;;;5.50;99.90;;;;;;5059740;28;20077;-81
2021/03/12 05:35:43;;;;;;;0.30;0.20;;;5.40;99.90;;;;;;5069070;28;20096;-81
2021/03/12 05:38:08;;;;;;;0.80;0.17;;;5.40;99.90;;;;;;5068968;28;20570;-80
2021/03/12 05:40:34;;;;;;;3.10;0.40;;;5.40;99.90;;;;;;5068283;28;20076;-83
2021/03/12 05:43:01;;;;;;;1.17;0.55;;;5.40;99.90;;;;;;5071021;28;20164;-81
2021/03/12 05:45:27;;;;;;;3.42;0.47;;;5.40;99.90;;;;;;5070767;28;20158;-80
2021/03/12 05:47:54;;;;;;;0.35;0.30;;;5.40;99.90;;;;;;5069398;28;20581;-80
2021/03/12 05:50:20;;;;;;;2.67;0.35;;;5.40;99.90;;;;;;5070948;28;20147;-80
2021/03/12 05:52:47;;;;;;;2.10;0.40;;;5.40;99.90;;;;;;5068098;28;20081;-80
2021/03/12 05:55:15;;;;;;;1.73;0.50;;;5.30;99.90;;;;;;5068802;28;20077;-80
2021/03/12 05:57:41;;;;;;;0.98;0.40;;;5.30;99.90;;;;;;5069437;28;20105;-81
2021/03/12 06:00:08;;;;;;;1.65;0.35;;;5.40;99.90;;;;;;5071925;28;20109;-80
2021/03/12 06:02:34;;;;;;;1.20;0.20;;;5.40;99.90;;;;;;5069539;28;20081;-79
2021/03/12 06:05:00;;;;;;;2.20;0.93;;;5.40;99.90;;;;;;5070078;28;20091;-80
2021/03/12 06:07:25;;;;;;;1.67;0.20;;;5.40;99.90;;;;;;5070275;28;20089;-79
2021/03/12 06:09:51;;;;;;;1.77;0.50;;;5.40;99.90;;;;;;5075135;28;20446;-79
2021/03/12 06:12:17;;;;;;;2.05;0.30;;;5.40;99.90;;;;;;5082101;28;20564;-80
2021/03/12 06:15:03;;;;;;;0.70;0.30;;;5.40;99.90;;;;;;5070161;28;20769;-79
2021/03/12 06:17:30;;;;;;;2.00;0.20;;;5.50;99.90;;;;;;5057434;28;20097;-79
2021/03/12 06:19:56;;;;;;;2.25;0.28;;;5.60;99.90;;;;;;5073499;28;20084;-79
2021/03/12 06:22:21;;;;;;;2.70;0.50;;;5.70;99.90;;;;;;5062412;28;20073;-80
2021/03/12 06:24:47;;;;;;;2.45;0.40;;;5.70;99.90;;;;;;5069828;28;20600;-79
2021/03/12 06:27:23;;;;;;;2.42;0.45;;;5.70;99.90;;;;;;5070882;28;20130;-79
2021/03/12 06:29:49;;;;;;;1.23;0.43;;;5.70;99.90;;;;;;5071161;28;20115;-81
2021/03/12 06:32:14;;;;;;;2.83;0.60;;;5.70;99.90;;;;;;5077805;28;20161;-79
2021/03/12 06:34:40;;;;;;;2.38;0.60;;;5.70;99.90;;;;;;5062040;28;20124;-80
2021/03/12 06:37:30;;;;;;;1.45;0.43;;;5.70;99.90;;;;;;5062258;28;20108;-79
2021/03/12 06:39:56;;;;;;;1.48;0.40;;;5.70;99.90;;;;;;5058969;28;20502;-80
2021/03/12 06:42:21;;;;;;;3.17;0.35;;;5.60;99.90;;;;;;5057644;28;20078;-81
2021/03/12 06:44:47;;;;;;;1.45;0.40;;;5.60;99.90;;;;;;5068663;28;20073;-80
2021/03/12 06:47:19;;;;;;;1.60;0.50;;;5.50;99.90;;;;;;5064800;28;20158;-80
2021/03/12 06:49:58;;;;;;;1.58;0.25;;;5.50;99.90;;;;;;5078004;28;20076;-80
2021/03/12 06:52:34;;;;;;;2.13;0.63;;;5.40;99.90;;;;;;5066802;28;20089;-79
2021/03/12 06:55:00;;;;;;;1.02;0.88;;;5.40;99.90;;;;;;5058996;28;20160;-80
2021/03/12 06:57:26;;;;;;;4.53;1.08;;;5.50;99.90;;;;;;5051291;28;20122;-80
2021/03/12 07:00:06;;;;;;;3.25;0.50;;;5.50;99.90;;;;;;5070622;28;20553;-80
2021/03/12 07:02:36;;;;;;;3.58;0.32;;;5.50;99.90;;;;;;5067041;28;20081;-80
2021/03/12 07:05:03;;;;;;;1.42;0.38;;;5.50;99.90;;;;;;5059356;28;20076;-79
2021/03/12 07:07:47;;;;;;;1.35;0.22;;;5.50;99.90;;;;;;5068351;28;20104;-80
2021/03/12 07:10:12;;;;;;;3.38;0.47;;;5.50;99.90;;;;;;5071896;28;20077;-79
2021/03/12 07:12:52;;;;;;;2.20;0.22;;;5.60;99.90;;;;;;5073480;28;20077;-80
2021/03/12 07:15:19;;;;;;;1.77;0.30;;;5.60;99.90;;;;;;5072557;28;20559;-80
2021/03/12 07:17:45;;;;;;;0.45;0.20;;;5.70;99.90;;;;;;5073587;28;20173;-80
2021/03/12 07:20:14;;;;;;;2.28;0.30;;;5.60;99.90;;;;;;5065625;28;20077;-80
2021/03/12 07:22:44;;;;;;;4.68;0.85;;;5.70;99.90;;;;;;5091553;28;20423;-80
2021/03/12 07:25:11;;;;;;;1.52;0.40;;;5.70;99.90;;;;;;5079469;28;20077;-80
2021/03/12 07:27:40;;;;;;;2.10;0.45;;;5.70;99.90;;;;;;5063715;28;20532;-80
2021/03/12 07:30:08;;;;;;;1.35;0.25;;;5.60;99.90;;;;;;5072744;28;20107;-80
2021/03/12 07:32:36;;;;;;;0.90;0.40;;;5.60;99.90;;;;;;5063863;28;20070;-80
2021/03/12 07:35:03;;;;;;;1.67;0.40;;;5.60;99.90;;;;;;5060495;28;20084;-80
2021/03/12 07:37:33;;;;;;;1.23;0.22;;;5.70;99.90;;;;;;5068513;28;20093;-80
2021/03/12 07:40:00;;;;;;;0.55;0.25;;;5.70;99.90;;;;;;5065209;28;20082;-80
2021/03/12 07:42:27;;;;;;;0.85;0.43;;;5.70;99.90;;;;;;5077179;28;20122;-80
2021/03/12 07:44:55;;;;;;;1.15;0.30;;;5.80;99.90;;;;;;5069293;28;20103;-79
2021/03/12 07:47:22;;;;;;;2.10;0.60;;;5.80;99.90;;;;;;5068358;28;20096;-80
2021/03/12 07:49:51;;;;;;;2.53;0.57;;;5.80;99.90;;;;;;5059150;28;20085;-80
2021/03/12 07:52:17;;;;;;;2.17;0.73;;;5.80;99.90;;;;;;5070110;28;20542;-80
2021/03/12 07:54:46;;;;;;;1.02;0.38;;;5.80;99.90;;;;;;5064475;28;20091;-80
2021/03/12 07:57:36;;;;;;;2.92;0.88;;;5.80;99.90;;;;;;5068621;28;20108;-79
2021/03/12 08:00:04;;;;;;;1.77;0.70;;;5.90;99.90;;;;;;5069997;28;20077;-80
2021/03/12 08:02:55;;;;;;;3.25;0.50;;;5.90;99.90;;;;;;5066741;28;20087;-80
2021/03/12 08:05:30;;;;;;;1.13;0.52;;;5.80;99.90;;;;;;5059309;28;20134;-80
2021/03/12 08:07:55;;;;;;;;;;;5.90;99.90;;;;;;5059308;28;20100;-80
2021/03/12 08:10:22;;;;;;;1.52;0.30;;;5.90;99.90;;;;;;5070207;28;19968;-80
2021/03/12 08:12:49;;;;;;;4.43;2.10;;;5.90;99.90;;;;;;5069682;28;20088;-80
2021/03/12 08:15:18;;;;;;;0.70;0.40;;;6.00;99.90;;;;;;5065767;28;20099;-80
2021/03/12 08:17:45;;;;;;;2.38;0.70;;;6.10;99.90;;;;;;5077600;28;20106;-84
2021/03/12 08:20:23;;;;;;;3.42;2.47;;;6.20;99.90;;;;;;5069289;28;20583;-83
2021/03/12 08:22:50;;;;;;;0.90;0.40;;;6.20;99.90;;;;;;5054458;28;20077;-83
2021/03/12 08:25:48;;;;;;;4.45;0.70;;;6.20;99.90;;;;;;5070430;28;20180;-84
2021/03/12 08:28:13;;;;;;;4.22;0.75;;;6.10;99.90;;;;;;5053374;28;20552;-84
2021/03/12 08:30:39;;;;;;;1.98;0.80;;;6.20;99.90;;;;;;5067771;28;20188;-85
2021/03/12 08:33:21;;;;;;;2.60;0.85;;;6.20;99.90;;;;;;5068395;28;20072;-83
2021/03/12 08:35:48;;;;;;;2.67;0.90;;;6.20;99.90;;;;;;5070123;28;20085;-85
2021/03/12 08:38:29;;;;;;;2.20;1.08;;;6.20;99.90;;;;;;5065430;28;20112;-83
2021/03/12 08:41:04;;;;;;;3.95;1.58;;;6.30;99.90;;;;;;5056427;28;20073;-85
2021/03/12 08:43:31;;;;;;;3.50;0.93;;;6.30;99.90;;;;;;5066443;28;20073;-85
2021/03/12 08:46:03;;;;;;;4.82;1.70;;;6.30;99.90;;;;;;5069296;28;20106;-83
2021/03/12 08:48:34;;;;;;;5.68;2.22;;;6.30;99.90;;;;;;5056231;28;20539;-85
2021/03/12 08:51:04;;;;;;;5.90;1.05;;;6.30;99.90;;;;;;5066159;28;20085;-85
2021/03/12 08:53:35;;;;;;;4.43;0.93;;;6.40;99.90;;;;;;5050221;28;20111;-83
2021/03/12 08:56:02;;;;;;;2.60;1.42;;;6.50;99.90;;;;;;5068423;28;20092;-85
2021/03/12 08:58:30;;;;;;;2.63;0.60;;;6.70;99.90;;;;;;5092697;28;20093;-83
2021/03/12 09:01:14;;;;;;;5.70;1.27;;;6.90;99.90;;;;;;5066253;28;20073;-83
2021/03/12 09:03:46;;;;;;;2.13;0.60;;;7.10;99.90;;;;;;5062111;28;20077;-81
2021/03/12 09:06:17;;;;;;;1.67;0.43;;;7.10;99.90;;;;;;5056182;28;20662;-81
2021/03/12 09:08:44;;;;;;;3.80;0.63;;;7.20;99.90;;;;;;5066549;28;20172;-80
2021/03/12 09:11:15;;;;;;;1.23;0.60;;;7.40;99.90;;;;;;5074312;28;20560;-80
2021/03/12 09:13:44;;;;;;;1.67;0.60;;;7.50;99.90;;;;;;5079435;28;20069;-80
2021/03/12 09:16:16;;;;;;;3.80;1.05;;;7.50;99.90;;;;;;5063756;28;20103;-81
2021/03/12 09:18:42;;;;;;;2.20;1.10;;;7.70;99.90;;;;;;5055017;28;20523;-81
2021/03/12 09:21:10;;;;;;;3.60;0.68;;;7.70;99.90;;;;;;5062463;28;20165;-81
2021/03/12 09:23:41;;;;;;;3.05;0.82;;;7.60;99.90;;;;;;5069005;28;20080;-84
2021/03/12 09:26:39;;;;;;;4.57;0.80;;;7.70;99.90;;;;;;5070545;28;20099;-84
2021/03/12 09:29:07;;;;;;;4.20;0.90;;;7.80;99.90;;;;;;5056791;28;20150;-81
2021/03/12 09:31:42;;;;;;;3.80;0.80;;;7.90;99.90;;;;;;5071415;28;20081;-80
2021/03/12 09:34:13;;;;;;;1.30;0.45;;;7.70;99.90;;;;;;5071200;28;20080;-81
2021/03/12 09:36:43;;;;;;;4.18;0.65;;;7.80;99.90;;;;;;5066295;28;20089;-81
2021/03/12 09:39:20;;;;;;;4.03;0.70;;;7.90;99.90;;;;;;5053879;28;20131;-81
2021/03/12 09:41:57;;;;;;;2.60;0.50;;;7.80;99.90;;;;;;5062211;28;20160;-80
2021/03/12 09:44:24;;;;;;;3.17;0.68;;;7.70;99.90;;;;;;5066686;28;20069;-81
2021/03/12 09:46:55;;;;;;;5.10;2.72;;;7.90;99.90;;;;;;5067918;28;20166;-80
2021/03/12 09:49:33;;;;;;;3.88;1.33;;;8.00;99.90;;;;;;5065645;28;20101;-81
2021/03/12 09:52:13;;;;;;;3.35;0.73;;;7.80;99.40;;;;;;5070009;28;20142;-81
2021/03/12 09:54:40;;;;;;;3.03;0.70;;;8.00;99.90;;;;;;5072980;28;20087;-80
2021/03/12 09:57:06;;;;;;;2.47;0.98;;;8.20;99.70;;;;;;5065824;28;20097;-81
2021/03/12 09:59:36;;;;;;;12.93;6.75;;;8.20;99.20;;;;;;5070955;28;20169;-81
2021/03/12 10:02:07;;;;;;;3.80;0.90;;;8.10;97.90;;;;;;5072423;28;20164;-81
2021/03/12 10:04:38;;;;;;;2.47;0.57;;;8.10;99.90;;;;;;5098907;28;20727;-86
2021/03/12 10:07:15;;;;;;;4.07;0.43;;;8.00;99.60;;;;;;5071003;28;20104;-82
2021/03/12 10:09:42;;;;;;;1.63;0.70;;;8.00;99.90;;;;;;5060341;28;20073;-81
2021/03/12 10:12:22;;;;;;;9.43;2.80;;;8.00;99.50;;;;;;5071123;28;20107;-83
2021/03/12 10:15:07;;;;;;;7.13;5.70;;;8.00;98.70;;;;;;5064043;28;20176;-81
2021/03/12 10:17:35;;;;;;;;;;;8.00;98.40;;;;;;5062261;28;20147;-82
2021/03/12 10:20:16;;;;;;;2.08;0.60;;;8.20;98.00;;;;;;5064764;28;20063;-82
2021/03/12 10:22:43;;;;;;;11.55;6.45;;;8.10;99.70;;;;;;5068116;28;20707;-82
2021/03/12 10:25:30;;;;;;;3.30;0.57;;;8.10;98.40;;;;;;5071917;28;20073;-83
2021/03/12 10:28:07;;;;;;;3.15;0.60;;;8.30;99.90;;;;;;5063096;28;20838;-82
2021/03/12 10:30:35;;;;;;;1.77;1.00;;;8.30;99.50;;;;;;5068106;28;20224;-82
2021/03/12 10:33:21;;;;;;;0.73;0.40;;;8.20;98.70;;;;;;5070121;28;20080;-82
2021/03/12 10:35:58;;;;;;;2.30;1.13;;;8.20;99.80;;;;;;5068624;28;20096;-83
2021/03/12 10:38:35;;;;;;;3.65;0.88;;;8.20;99.90;;;;;;5069715;28;20096;-82
2021/03/12 10:41:03;;;;;;;2.58;0.68;;;8.20;98.30;;;;;;5088870;27;20554;-82
2021/03/12 10:43:33;;;;;;;3.65;0.43;;;8.20;99.60;;;;;;5065192;28;20579;-81
2021/03/12 10:46:05;;;;;;;4.53;2.28;;;8.30;99.90;;;;;;5064125;28;20092;-82
2021/03/12 10:48:47;;;;;;;2.28;0.60;;;8.40;99.60;;;;;;5094452;28;20093;-83
2021/03/12 10:51:15;;;;;;;1.35;0.40;;;8.50;99.20;;;;;;5074598;28;20076;-83
2021/03/12 10:53:55;;;;;;;4.15;0.75;;;8.30;97.30;;;;;;5074224;28;20083;-83
2021/03/12 10:56:29;;;;;;;2.75;0.90;;;8.20;98.40;;;;;;5072980;28;20116;-83
2021/03/12 10:58:56;;;;;;;1.38;0.43;;;8.20;98.60;;;;;;5070327;28;20111;-82
2021/03/12 11:01:30;;;;;;;2.15;1.30;;;8.20;98.60;;;;;;5072842;28;20073;-82
2021/03/12 11:03:58;;;;;;;3.15;0.90;;;8.20;95.50;;;;;;5073240;28;20072;-82
2021/03/12 11:06:34;;;;;;;4.38;1.70;;;8.30;96.10;;;;;;5070579;28;20172;-83
2021/03/12 11:09:06;;;;;;;3.17;0.90;;;8.40;95.30;;;;;;5070874;28;20080;-82
2021/03/12 11:11:31;;;;;;;2.85;0.50;;;8.50;95.40;;;;;;5074440;28;20151;-82
2021/03/12 11:13:57;;;;;;;2.53;0.80;;;8.60;94.10;;;;;;5065523;28;20081;-81
2021/03/12 11:16:23;;;;;;;2.83;0.80;;;8.60;92.00;;;;;;5069709;28;20096;-82
2021/03/12 11:18:49;;;;;;;2.30;0.82;;;8.50;90.90;;;;;;5070668;28;20132;-83
2021/03/12 11:21:15;;;;;;;1.73;0.60;;;8.60;92.70;;;;;;5067754;28;20070;-82
2021/03/12 11:23:45;;;;;;;4.05;1.40;;;8.70;91.60;;;;;;5065544;28;20081;-82
2021/03/12 11:26:15;;;;;;;2.33;0.43;;;8.70;90.50;;;;;;5068914;28;20684;-81
2021/03/12 11:28:40;;;;;;;2.90;1.02;;;8.70;87.70;;;;;;5070709;28;20078;-82
2021/03/12 11:31:06;;;;;;;2.88;0.85;;;8.80;90.60;;;;;;5071483;28;20097;-82
2021/03/12 11:33:32;;;;;;;4.75;0.50;;;8.90;85.40;;;;;;5068507;28;20077;-82
2021/03/12 11:36:00;;;;;;;3.28;0.75;;;8.90;82.00;;;;;;5076201;28;20093;-82
2021/03/12 11:38:28;;;;;;;2.25;0.70;;;9.00;84.00;;;;;;5063344;28;20081;-80
2021/03/12 11:40:56;;;;;;;1.85;0.60;;;9.00;81.60;;;;;;5072513;28;20562;-82
2021/03/12 11:43:22;;;;;;;1.25;0.68;;;9.10;81.90;;;;;;5077158;28;20080;-81
2021/03/12 11:45:48;;;;;;;3.92;0.70;;;9.20;79.20;;;;;;5052450;28;20090;-82
2021/03/12 11:48:13;;;;;;;1.83;0.40;;;9.30;80.80;;;;;;5089734;28;20081;-82
2021/03/12 11:50:39;;;;;;;3.63;0.57;;;9.40;83.30;;;;;;5063888;28;20116;-83
2021/03/12 11:53:05;;;;;;;2.75;0.60;;;9.40;76.60;;;;;;5070207;28;20438;-82
2021/03/12 11:55:32;;;;;;;7.72;2.20;;;9.50;81.70;;;;;;5067022;28;20080;-83
2021/03/12 11:57:58;;;;;;;3.95;0.70;;;9.80;81.50;;;;;;5055947;28;20093;-84
2021/03/12 12:00:24;;;;;;;4.88;0.38;;;9.80;78.30;;;;;;5066268;28;20072;-83
2021/03/12 12:02:50;;;;;;;6.13;1.20;;;10.00;81.10;;;;;;5067052;28;20131;-84
2021/03/12 12:05:17;;;;;;;1.58;0.60;;;10.10;73.30;;;;;;5068461;28;20603;-84
2021/03/12 12:07:44;;;;;;;1.25;0.40;;;10.00;75.60;;;;;;5064562;28;20105;-83
2021/03/12 12:10:12;;;;;;;3.28;0.50;;;10.10;77.00;;;;;;5073071;28;20081;-83
2021/03/12 12:12:41;;;;;;;3.45;0.90;;;10.10;76.90;;;;;;5075909;28;20107;-84
2021/03/12 12:15:08;;;;;;;1.55;0.40;;;10.20;74.50;;;;;;5102284;28;20260;-81
2021/03/12 12:17:33;;;;;;;1.48;0.50;;;10.00;72.10;;;;;;5056035;28;20088;-83
2021/03/12 12:19:59;;;;;;;4.68;0.70;;;9.80;74.60;;;;;;5065903;28;20427;-82
2021/03/12 12:22:25;;;;;;;3.20;0.63;;;9.70;75.80;;;;;;5062459;28;20171;-81
2021/03/12 12:24:55;;;;;;;2.40;0.60;;;9.60;76.70;;;;;;5054779;28;20081;-81
2021/03/12 12:27:21;;;;;;;5.15;0.80;;;9.50;76.20;;;;;;5065569;28;20093;-81
2021/03/12 12:29:47;;;;;;;5.20;0.50;;;9.50;79.60;;;;;;5069521;28;20678;-81
2021/03/12 12:32:12;;;;;;;3.47;0.73;;;9.50;79.40;;;;;;5068740;28;20089;-82
2021/03/12 12:34:38;;;;;;;3.00;0.52;;;9.40;78.30;;;;;;5079522;28;20430;-81
2021/03/12 12:37:04;;;;;;;4.13;0.38;;;9.30;77.70;;;;;;5071170;28;20107;-84
2021/03/12 12:39:30;;;;;;;2.80;0.80;;;9.40;83.20;;;;;;5072107;28;20077;-83
2021/03/12 12:41:56;;;;;;;1.58;0.40;;;9.50;79.60;;;;;;5075964;28;20086;-83
2021/03/12 12:44:21;;;;;;;2.13;0.50;;;9.40;80.60;;;;;;5065934;28;20072;-83
2021/03/12 12:46:47;;;;;;;1.75;0.77;;;9.40;78.20;;;;;;5061584;28;20184;-82
2021/03/12 12:49:13;;;;;;;0.88;0.30;;;9.60;83.20;;;;;;5063869;28;20099;-82
2021/03/12 12:51:47;;;;;;;1.33;0.40;;;9.70;78.70;;;;;;5066767;28;20061;-84
2021/03/12 12:54:13;;;;;;;1.25;0.30;;;9.70;78.10;;;;;;5072488;28;20076;-85
2021/03/12 12:56:39;;;;;;;3.47;0.40;;;9.70;78.30;;;;;;5065685;28;20097;-86
2021/03/12 12:59:05;;;;;;;1.90;0.55;;;9.70;80.40;;;;;;5067135;28;20456;-85
2021/03/12 13:01:30;;;;;;;2.13;0.55;;;9.90;82.10;;;;;;5068491;28;20073;-84
2021/03/12 13:03:56;;;;;;;1.60;0.40;;;9.80;73.80;;;;;;5082488;28;20068;-84
2021/03/12 13:06:22;;;;;;;0.50;0.28;;;9.80;74.40;;;;;;5071021;28;20458;-84